Time;durP1;ratioP1;P1;durP2;ratioP2;P2;SDS_P1;SDS_P2;PMS_P1;PMS_P2;Temp;Humidity;BMP_temperature;BMP_pressure;BME280_temperature;BME280_humidity;BME280_pressure;Samples;Min_cycle;Max_cycle;Signal;HPM_P1;HPM_P2
2022/06/27 00:00:49;;;;;;;2.63;1.10;;;16.30;62.00;;;;;;4980595;28;20062;-87
2022/06/27 00:03:15;;;;;;;3.15;1.13;;;16.20;61.60;;;;;;5000361;28;20100;-86
2022/06/27 00:05:41;;;;;;;2.85;1.00;;;16.30;61.90;;;;;;4990206;28;20026;-87
2022/06/27 00:08:07;;;;;;;5.05;1.17;;;16.20;62.10;;;;;;4986327;28;20053;-87
2022/06/27 00:10:33;;;;;;;2.38;1.23;;;16.20;62.20;;;;;;4988229;28;20061;-87
2022/06/27 00:13:02;;;;;;;8.63;1.40;;;16.20;62.40;;;;;;4980117;28;20053;-86
2022/06/27 00:15:27;;;;;;;4.75;1.42;;;16.20;61.80;;;;;;4984352;28;20111;-88
2022/06/27 00:17:53;;;;;;;6.07;1.15;;;16.20;62.30;;;;;;4999126;28;20023;-87
2022/06/27 00:20:19;;;;;;;7.82;1.50;;;16.10;63.00;;;;;;4999823;28;20019;-86
2022/06/27 00:22:45;;;;;;;4.65;1.15;;;16.10;62.20;;;;;;4995807;28;20112;-87
2022/06/27 00:25:10;;;;;;;4.93;1.40;;;16.10;62.70;;;;;;4980493;28;20033;-87
2022/06/27 00:27:36;;;;;;;3.05;1.20;;;16.00;63.10;;;;;;4978179;28;20110;-87
2022/06/27 00:30:06;;;;;;;3.88;1.30;;;16.00;63.30;;;;;;4997277;28;20401;-87
2022/06/27 00:32:32;;;;;;;2.80;1.40;;;16.00;62.80;;;;;;4999077;28;20465;-87
2022/06/27 00:34:57;;;;;;;2.83;1.42;;;15.90;63.10;;;;;;4996736;28;20030;-88
2022/06/27 00:37:24;;;;;;;2.35;1.20;;;15.90;63.50;;;;;;4999952;28;20026;-86
2022/06/27 00:39:49;;;;;;;3.45;1.30;;;15.80;63.50;;;;;;4996631;28;20093;-86
2022/06/27 00:42:15;;;;;;;3.55;1.30;;;15.80;63.80;;;;;;4999376;28;20569;-86
2022/06/27 00:44:43;;;;;;;2.33;1.02;;;15.70;65.00;;;;;;4997490;28;20030;-86
2022/06/27 00:47:16;;;;;;;6.07;1.42;;;15.70;64.10;;;;;;5011099;28;20031;-87
2022/06/27 00:49:42;;;;;;;3.05;1.30;;;15.60;64.00;;;;;;4997221;28;20034;-86
2022/06/27 00:52:11;;;;;;;3.42;1.35;;;15.60;63.70;;;;;;4994808;28;20031;-86
2022/06/27 00:54:39;;;;;;;2.75;1.30;;;15.50;64.40;;;;;;4977771;28;20023;-86
2022/06/27 00:57:06;;;;;;;5.05;1.33;;;15.50;65.20;;;;;;4977576;28;20043;-87
2022/06/27 00:59:32;;;;;;;2.10;1.10;;;15.50;65.10;;;;;;4979574;28;20022;-86
2022/06/27 01:01:58;;;;;;;3.03;1.15;;;15.50;65.50;;;;;;4977476;28;20023;-87
2022/06/27 01:04:24;;;;;;;4.55;1.15;;;15.40;65.40;;;;;;4983641;28;20045;-86
2022/06/27 01:06:53;;;;;;;3.38;1.13;;;15.40;64.60;;;;;;4998207;28;20034;-86
2022/06/27 01:09:20;;;;;;;6.05;1.40;;;15.30;65.50;;;;;;4982609;28;20066;-86
2022/06/27 01:11:46;;;;;;;2.35;1.15;;;15.30;65.10;;;;;;4979801;28;20015;-87
2022/06/27 01:14:12;;;;;;;2.88;1.23;;;15.30;66.20;;;;;;4997999;28;20041;-86
2022/06/27 01:16:39;;;;;;;3.70;1.23;;;15.20;67.10;;;;;;4990752;28;20023;-86
2022/06/27 01:19:09;;;;;;;2.05;1.15;;;15.10;67.10;;;;;;4978414;28;20045;-86
2022/06/27 01:21:44;;;;;;;3.53;1.33;;;15.20;66.40;;;;;;4978697;28;20023;-86
2022/06/27 01:24:09;;;;;;;5.32;1.30;;;15.30;65.60;;;;;;4979832;28;20043;-86
2022/06/27 01:26:55;;;;;;;3.10;1.05;;;15.20;65.60;;;;;;4996884;28;20023;-86
2022/06/27 01:29:21;;;;;;;2.88;1.30;;;15.20;66.00;;;;;;4988104;28;20039;-86
2022/06/27 01:31:48;;;;;;;5.18;1.20;;;15.20;66.70;;;;;;4978201;28;20027;-88
2022/06/27 01:34:14;;;;;;;5.90;1.10;;;15.20;66.40;;;;;;4981449;28;20030;-87
2022/06/27 01:36:43;;;;;;;1.35;0.90;;;15.20;67.40;;;;;;4997668;28;20025;-86
2022/06/27 01:39:16;;;;;;;3.80;1.40;;;15.20;67.30;;;;;;4998807;28;20034;-87
2022/06/27 01:41:45;;;;;;;6.38;1.38;;;15.20;66.90;;;;;;4995096;28;20034;-86
2022/06/27 01:44:15;;;;;;;3.53;1.17;;;15.30;67.20;;;;;;4998455;28;20034;-86
2022/06/27 01:46:43;;;;;;;7.18;1.23;;;15.30;65.90;;;;;;5008200;28;20026;-87
2022/06/27 01:49:08;;;;;;;2.03;0.95;;;15.20;67.30;;;;;;5011472;28;20035;-87
2022/06/27 01:51:35;;;;;;;5.55;1.48;;;15.20;66.90;;;;;;4978490;28;20081;-86
2022/06/27 01:54:01;;;;;;;2.60;1.23;;;15.20;66.90;;;;;;4977482;28;20041;-86
2022/06/27 01:56:28;;;;;;;3.92;1.30;;;15.10;66.60;;;;;;4977312;28;20027;-87
2022/06/27 01:58:57;;;;;;;5.93;1.60;;;15.00;67.90;;;;;;4977600;28;20031;-86
2022/06/27 02:01:24;;;;;;;2.60;1.40;;;15.10;67.30;;;;;;4978904;28;20062;-86
2022/06/27 02:03:50;;;;;;;4.45;1.10;;;15.10;67.20;;;;;;4975764;28;20030;-86
2022/06/27 02:06:16;;;;;;;1.92;1.20;;;15.10;67.80;;;;;;4975388;28;20037;-86
2022/06/27 02:08:46;;;;;;;3.22;1.48;;;15.00;67.80;;;;;;4987652;28;20041;-86
2022/06/27 02:11:13;;;;;;;4.47;1.48;;;15.10;67.80;;;;;;4995728;28;20090;-86
2022/06/27 02:13:39;;;;;;;3.30;1.20;;;15.10;67.50;;;;;;4998084;28;20052;-86
2022/06/27 02:16:12;;;;;;;4.60;1.55;;;15.10;67.30;;;;;;4989022;28;20027;-86
2022/06/27 02:18:39;;;;;;;2.35;1.20;;;15.10;67.20;;;;;;4978090;28;20405;-86
2022/06/27 02:21:07;;;;;;;3.20;1.52;;;15.10;67.50;;;;;;4977276;28;20047;-85
2022/06/27 02:23:58;;;;;;;2.92;1.42;;;15.10;67.00;;;;;;4987870;28;20066;-86
2022/06/27 02:26:26;;;;;;;2.45;1.08;;;15.00;67.30;;;;;;4989384;28;20030;-86
2022/06/27 02:28:53;;;;;;;1.70;1.20;;;15.00;67.10;;;;;;4994348;28;20041;-86
2022/06/27 02:31:20;;;;;;;4.13;1.35;;;14.90;67.60;;;;;;4996336;28;20026;-87
2022/06/27 02:33:47;;;;;;;3.10;1.10;;;14.80;68.10;;;;;;4995194;28;20032;-87
2022/06/27 02:36:18;;;;;;;1.67;1.23;;;14.80;67.70;;;;;;4997789;28;20023;-86
2022/06/27 02:38:46;;;;;;;4.53;1.75;;;14.80;68.20;;;;;;4995356;28;20392;-86
2022/06/27 02:41:17;;;;;;;2.22;1.48;;;14.80;67.40;;;;;;4994692;28;20093;-86
2022/06/27 02:43:56;;;;;;;1.88;1.27;;;14.70;68.80;;;;;;4996375;28;20090;-85
2022/06/27 02:46:41;;;;;;;3.53;1.45;;;14.70;68.80;;;;;;5000534;28;20033;-86
2022/06/27 02:49:08;;;;;;;1.60;1.30;;;14.70;67.80;;;;;;4996549;28;20054;-85
2022/06/27 02:52:08;;;;;;;3.25;1.42;;;14.60;69.00;;;;;;4996135;28;20032;-86
2022/06/27 02:55:05;;;;;;;4.13;1.50;;;14.50;69.40;;;;;;4994720;28;20026;-87
2022/06/27 02:58:02;;;;;;;3.53;1.52;;;14.50;69.40;;;;;;4993621;28;20045;-87
2022/06/27 03:00:28;;;;;;;3.20;1.55;;;14.60;69.00;;;;;;4995302;28;20069;-87
2022/06/27 03:02:56;;;;;;;3.20;1.67;;;14.60;68.90;;;;;;4977294;28;20031;-86
2022/06/27 03:05:22;;;;;;;6.40;1.88;;;14.60;68.60;;;;;;4977898;28;20035;-86
2022/06/27 03:07:47;;;;;;;3.67;1.77;;;14.70;68.40;;;;;;4975555;28;20741;-86
2022/06/27 03:10:13;;;;;;;2.47;1.70;;;14.70;68.10;;;;;;4977698;28;20426;-86
2022/06/27 03:12:40;;;;;;;5.93;1.88;;;14.60;68.60;;;;;;4976311;28;20026;-86
2022/06/27 03:15:09;;;;;;;4.45;1.60;;;14.60;68.90;;;;;;4977028;28;20078;-86
2022/06/27 03:17:35;;;;;;;6.50;1.80;;;14.60;68.40;;;;;;4981404;28;20026;-86
2022/06/27 03:20:00;;;;;;;4.57;2.33;;;14.50;68.90;;;;;;4995864;28;20033;-86
2022/06/27 03:22:26;;;;;;;5.65;1.63;;;14.50;69.00;;;;;;4983074;28;20468;-86
2022/06/27 03:24:52;;;;;;;6.13;1.70;;;14.60;68.70;;;;;;4976408;28;20031;-86
2022/06/27 03:27:17;;;;;;;5.50;1.60;;;14.70;68.60;;;;;;4977878;28;20030;-85
2022/06/27 03:29:43;;;;;;;8.00;2.22;;;14.60;68.70;;;;;;4994723;28;20041;-86
2022/06/27 03:32:09;;;;;;;4.90;1.50;;;14.60;69.30;;;;;;4995178;28;20064;-86
2022/06/27 03:34:35;;;;;;;2.97;1.33;;;14.50;69.90;;;;;;4994934;28;20022;-87
2022/06/27 03:37:01;;;;;;;3.75;1.27;;;14.40;70.00;;;;;;4989703;28;20030;-86
2022/06/27 03:39:26;;;;;;;4.65;1.40;;;14.30;70.50;;;;;;4977088;28;20524;-86
2022/06/27 03:41:52;;;;;;;4.50;1.23;;;14.30;70.40;;;;;;4975807;28;20027;-85
2022/06/27 03:44:18;;;;;;;3.88;1.40;;;14.30;69.90;;;;;;4977271;28;20034;-85
2022/06/27 03:46:44;;;;;;;3.20;1.70;;;14.30;70.30;;;;;;5001409;28;20117;-85
2022/06/27 03:51:54;;;;;;;3.00;1.30;;;14.30;69.60;;;;;;5004983;28;20075;-86
2022/06/27 03:54:20;;;;;;;4.22;1.70;;;14.20;70.00;;;;;;4995466;28;20030;-86
2022/06/27 03:56:45;;;;;;;5.38;1.50;;;14.20;71.00;;;;;;4996398;28;20050;-86
2022/06/27 03:59:11;;;;;;;1.75;1.10;;;14.10;70.50;;;;;;4994046;28;20019;-86
2022/06/27 04:01:37;;;;;;;2.95;1.38;;;14.10;69.80;;;;;;4991743;28;20058;-86
2022/06/27 04:04:03;;;;;;;2.90;1.23;;;14.10;70.00;;;;;;4975960;28;20027;-86
2022/06/27 04:06:29;;;;;;;3.90;1.65;;;14.10;69.90;;;;;;4985946;28;20039;-86
2022/06/27 04:08:55;;;;;;;2.75;1.67;;;14.10;70.60;;;;;;4975111;28;20030;-86
2022/06/27 04:11:20;;;;;;;3.20;1.38;;;14.00;70.80;;;;;;4983342;28;20473;-87
2022/06/27 04:13:46;;;;;;;2.47;1.48;;;14.10;70.90;;;;;;4996305;28;20027;-86
2022/06/27 04:16:12;;;;;;;4.53;2.33;;;14.00;71.00;;;;;;4991502;28;20615;-86
2022/06/27 04:18:38;;;;;;;2.08;1.38;;;14.10;70.70;;;;;;4976634;28;20054;-86
2022/06/27 04:21:04;;;;;;;1.42;1.25;;;14.00;71.20;;;;;;4974607;28;20544;-85
2022/06/27 04:23:29;;;;;;;7.18;1.40;;;14.00;70.90;;;;;;4976175;28;20038;-86
2022/06/27 04:25:55;;;;;;;2.83;1.27;;;14.00;71.30;;;;;;4975907;28;20106;-87
2022/06/27 04:28:31;;;;;;;3.22;1.13;;;13.90;71.40;;;;;;4975676;28;20031;-85
2022/06/27 04:30:56;;;;;;;4.03;1.50;;;13.90;71.60;;;;;;4994070;28;20038;-86
2022/06/27 04:33:22;;;;;;;5.35;1.63;;;13.90;70.20;;;;;;4979287;28;20026;-87
2022/06/27 04:35:48;;;;;;;4.75;1.80;;;13.90;70.80;;;;;;4991132;28;20103;-86
2022/06/27 04:38:14;;;;;;;3.15;1.58;;;13.90;70.50;;;;;;4998211;28;20019;-86
2022/06/27 04:40:40;;;;;;;3.25;1.35;;;13.90;70.80;;;;;;4996491;28;20034;-86
2022/06/27 04:43:06;;;;;;;2.97;1.95;;;13.80;70.70;;;;;;4994616;28;20507;-81
2022/06/27 04:45:35;;;;;;;4.32;1.50;;;13.90;70.70;;;;;;4984679;28;20022;-82
2022/06/27 04:48:01;;;;;;;3.50;1.45;;;13.80;72.10;;;;;;5032986;28;20030;-80
2022/06/27 04:50:28;;;;;;;1.80;1.23;;;13.90;71.50;;;;;;5000933;28;20038;-83
2022/06/27 04:52:55;;;;;;;6.13;1.30;;;14.00;71.30;;;;;;4977438;28;20065;-79
2022/06/27 04:55:22;;;;;;;6.00;1.55;;;13.90;71.50;;;;;;4976926;28;20035;-78
2022/06/27 04:57:48;;;;;;;3.70;1.50;;;13.90;71.70;;;;;;4977266;28;20101;-77
2022/06/27 05:00:15;;;;;;;2.53;1.52;;;14.00;72.20;;;;;;4977008;28;20026;-78
2022/06/27 05:02:41;;;;;;;3.22;1.67;;;14.00;71.10;;;;;;4977556;28;20121;-81
2022/06/27 05:05:08;;;;;;;5.65;1.40;;;14.00;71.00;;;;;;4985870;28;20462;-79
2022/06/27 05:07:34;;;;;;;3.03;1.15;;;14.00;71.80;;;;;;4985614;28;20019;-81
2022/06/27 05:10:00;;;;;;;3.65;1.27;;;14.10;71.90;;;;;;5009414;28;20041;-78
2022/06/27 05:12:27;;;;;;;2.88;1.40;;;14.20;71.50;;;;;;4988484;28;20026;-82
2022/06/27 05:14:54;;;;;;;7.32;1.60;;;14.20;71.00;;;;;;4997223;28;20250;-81
2022/06/27 05:17:20;;;;;;;3.72;1.50;;;14.20;71.00;;;;;;4995604;28;20018;-84
2022/06/27 05:19:46;;;;;;;3.13;1.50;;;14.10;72.00;;;;;;4977991;28;20027;-80
2022/06/27 05:22:12;;;;;;;5.18;1.67;;;14.20;71.70;;;;;;4983765;28;20081;-78
2022/06/27 05:24:38;;;;;;;7.45;1.67;;;14.20;72.40;;;;;;4993307;28;20061;-78
2022/06/27 05:27:04;;;;;;;2.28;1.65;;;14.20;71.80;;;;;;4987147;28;20057;-82
2022/06/27 05:29:30;;;;;;;2.40;1.40;;;14.20;71.30;;;;;;4992293;28;20038;-80
2022/06/27 05:31:55;;;;;;;4.97;1.60;;;14.30;71.80;;;;;;4991134;28;20072;-79
2022/06/27 05:34:21;;;;;;;5.53;1.50;;;14.30;72.20;;;;;;4994267;28;20397;-78
2022/06/27 05:36:47;;;;;;;2.85;1.63;;;14.30;72.30;;;;;;4976015;28;20073;-79
2022/06/27 05:39:14;;;;;;;3.28;1.70;;;14.30;72.60;;;;;;4976522;28;20027;-79
2022/06/27 05:41:41;;;;;;;4.40;1.73;;;14.30;72.50;;;;;;4991929;28;20047;-79
2022/06/27 05:44:07;;;;;;;5.50;1.83;;;14.20;73.60;;;;;;4992430;28;20050;-79
2022/06/27 05:46:33;;;;;;;6.53;2.30;;;14.20;73.60;;;;;;4998362;28;20021;-79
2022/06/27 05:49:01;;;;;;;7.28;2.10;;;14.20;74.10;;;;;;5015447;28;20022;-80
2022/06/27 05:51:27;;;;;;;8.02;1.42;;;14.20;74.10;;;;;;4994349;28;20034;-79
2022/06/27 05:53:52;;;;;;;5.82;1.45;;;14.20;74.40;;;;;;4989055;28;20656;-79
2022/06/27 05:56:18;;;;;;;2.97;1.40;;;14.20;74.10;;;;;;4995735;28;20378;-79
2022/06/27 05:58:44;;;;;;;4.35;1.70;;;14.20;74.20;;;;;;4995850;28;20054;-81
2022/06/27 06:01:10;;;;;;;7.28;1.92;;;14.20;73.80;;;;;;4994692;28;20030;-80
2022/06/27 06:03:37;;;;;;;3.58;1.67;;;14.30;73.40;;;;;;4996483;28;20448;-80
2022/06/27 06:06:04;;;;;;;3.13;1.55;;;14.40;73.10;;;;;;4996632;28;20027;-80
2022/06/27 06:08:30;;;;;;;3.42;1.67;;;14.50;73.10;;;;;;4982368;28;20041;-80
2022/06/27 06:10:57;;;;;;;4.97;1.83;;;14.50;73.50;;;;;;4977141;28;20062;-80
2022/06/27 06:13:24;;;;;;;2.38;1.65;;;14.60;72.70;;;;;;4976511;28;20039;-80
2022/06/27 06:15:50;;;;;;;4.82;1.40;;;14.50;72.50;;;;;;4977175;28;20544;-80
2022/06/27 06:18:17;;;;;;;2.88;1.73;;;14.60;72.90;;;;;;4975849;28;20027;-80
2022/06/27 06:20:43;;;;;;;4.38;1.60;;;14.60;72.90;;;;;;4976734;28;20513;-80
2022/06/27 06:23:08;;;;;;;5.18;2.22;;;14.70;72.50;;;;;;4996008;28;20034;-80
2022/06/27 06:25:34;;;;;;;3.88;1.50;;;14.70;73.20;;;;;;4995131;28;20078;-80
2022/06/27 06:28:04;;;;;;;3.40;1.58;;;14.70;73.20;;;;;;4996224;28;20048;-80
2022/06/27 06:30:33;;;;;;;8.85;1.80;;;14.70;73.30;;;;;;4994489;28;20034;-80
2022/06/27 06:33:04;;;;;;;4.20;1.48;;;14.80;73.00;;;;;;4996012;28;20035;-80
2022/06/27 06:35:31;;;;;;;3.53;1.77;;;14.80;73.60;;;;;;4994104;28;20093;-80
2022/06/27 06:37:58;;;;;;;7.90;1.80;;;14.80;73.80;;;;;;4992319;28;20090;-80
2022/06/27 06:40:24;;;;;;;4.72;1.60;;;14.90;73.90;;;;;;4976585;28;20080;-80
2022/06/27 06:42:51;;;;;;;6.05;1.80;;;14.90;74.00;;;;;;4975926;28;20393;-80
2022/06/27 06:45:17;;;;;;;4.88;1.70;;;15.00;74.20;;;;;;4978792;28;20026;-80
2022/06/27 06:47:44;;;;;;;5.57;1.60;;;15.00;74.50;;;;;;5001774;28;20057;-80
2022/06/27 06:50:13;;;;;;;4.82;1.90;;;15.10;74.50;;;;;;4975764;28;20441;-80
2022/06/27 06:52:41;;;;;;;5.63;2.15;;;15.20;74.50;;;;;;4975142;28;20098;-80
2022/06/27 06:55:08;;;;;;;5.82;1.67;;;15.20;74.10;;;;;;4976389;28;20110;-80
2022/06/27 06:57:34;;;;;;;2.38;1.50;;;15.30;74.10;;;;;;4976218;28;20395;-80
2022/06/27 06:59:59;;;;;;;4.47;1.50;;;15.30;73.60;;;;;;4976271;28;20054;-80
2022/06/27 07:02:26;;;;;;;4.63;1.75;;;15.40;74.20;;;;;;4976499;28;20138;-80
2022/06/27 07:04:52;;;;;;;2.42;1.35;;;15.50;73.90;;;;;;4976303;28;20085;-80
2022/06/27 07:07:19;;;;;;;2.80;1.50;;;15.60;73.10;;;;;;4975975;28;20378;-80
2022/06/27 07:09:44;;;;;;;5.38;1.30;;;15.70;72.80;;;;;;4976117;28;20023;-80
2022/06/27 07:12:11;;;;;;;3.85;1.20;;;15.80;72.60;;;;;;4992485;28;20049;-80
2022/06/27 07:14:36;;;;;;;4.93;1.95;;;15.80;71.90;;;;;;5010621;28;20077;-80
2022/06/27 07:17:02;;;;;;;6.38;1.23;;;16.00;71.10;;;;;;4994921;28;20031;-80
2022/06/27 07:19:29;;;;;;;5.20;1.20;;;16.00;70.40;;;;;;4992947;28;20026;-80
2022/06/27 07:21:55;;;;;;;5.63;1.13;;;16.10;70.10;;;;;;4983303;28;20026;-79
2022/06/27 07:24:20;;;;;;;5.30;1.17;;;16.20;69.60;;;;;;4974024;28;20038;-79
2022/06/27 07:26:46;;;;;;;6.45;1.40;;;16.30;69.30;;;;;;4976009;28;20405;-80
2022/06/27 07:29:12;;;;;;;8.27;1.20;;;16.40;68.60;;;;;;4976012;28;21329;-81
2022/06/27 07:31:38;;;;;;;5.55;1.10;;;16.50;68.70;;;;;;4985815;28;20040;-81
2022/06/27 07:34:08;;;;;;;2.45;1.02;;;16.80;67.80;;;;;;4993526;28;20023;-81
2022/06/27 07:36:35;;;;;;;4.15;1.10;;;17.10;67.30;;;;;;5005982;28;20105;-80
2022/06/27 07:39:03;;;;;;;3.72;1.30;;;17.70;65.50;;;;;;5002842;28;20065;-81
2022/06/27 07:41:32;;;;;;;8.07;1.10;;;19.30;59.60;;;;;;5011752;28;20423;-82
2022/06/27 07:43:57;;;;;;;2.58;1.20;;;21.90;52.90;;;;;;5009254;28;20034;-83
2022/06/27 07:46:23;;;;;;;2.60;0.73;;;25.00;45.70;;;;;;4999432;28;20034;-82
2022/06/27 07:48:52;;;;;;;3.65;0.88;;;27.10;40.70;;;;;;4983511;28;20047;-83
2022/06/27 07:51:19;;;;;;;;;;;29.30;37.60;;;;;;4986480;28;20041;-83
2022/06/27 07:53:47;;;;;;;3.10;0.80;;;31.00;31.90;;;;;;5002877;28;19914;-83
2022/06/27 07:56:15;;;;;;;5.70;0.70;;;32.50;31.50;;;;;;5010070;28;20022;-83
2022/06/27 07:58:41;;;;;;;6.78;1.10;;;33.40;30.00;;;;;;5023416;28;20135;-82
2022/06/27 08:01:09;;;;;;;6.65;0.70;;;33.80;30.00;;;;;;5004785;28;20043;-82
2022/06/27 08:03:44;;;;;;;3.83;0.95;;;33.30;29.30;;;;;;5008987;28;20073;-82
2022/06/27 08:06:20;;;;;;;3.70;1.20;;;32.90;29.70;;;;;;4983725;28;20050;-83
2022/06/27 08:08:51;;;;;;;5.47;1.20;;;33.30;28.10;;;;;;4988810;28;20047;-82
2022/06/27 08:11:19;;;;;;;3.45;0.80;;;34.00;27.20;;;;;;4991517;28;20026;-82
2022/06/27 08:13:47;;;;;;;3.08;0.60;;;34.80;26.10;;;;;;4998558;28;20591;-82
2022/06/27 08:16:15;;;;;;;3.38;0.75;;;33.10;27.50;;;;;;4988902;28;20018;-82
2022/06/27 08:18:44;;;;;;;5.85;0.80;;;32.40;28.80;;;;;;4984806;28;20073;-82
2022/06/27 08:21:10;;;;;;;6.60;0.93;;;33.50;27.60;;;;;;4981975;28;20014;-83
2022/06/27 08:23:38;;;;;;;5.25;1.05;;;34.60;25.70;;;;;;4981732;28;20034;-83
2022/06/27 08:26:08;;;;;;;5.03;0.88;;;34.70;25.10;;;;;;4991822;28;20412;-83
2022/06/27 08:28:36;;;;;;;3.67;1.17;;;35.30;23.70;;;;;;4986890;28;20037;-83
2022/06/27 08:31:10;;;;;;;5.68;0.70;;;34.60;24.10;;;;;;4992237;28;20109;-82
2022/06/27 08:33:36;;;;;;;3.67;0.60;;;33.80;25.90;;;;;;4982183;28;20425;-82
2022/06/27 08:36:04;;;;;;;2.90;0.60;;;32.80;26.30;;;;;;4984088;28;20042;-83
2022/06/27 08:38:39;;;;;;;2.75;0.75;;;33.70;25.80;;;;;;4982772;28;20925;-83
2022/06/27 08:41:06;;;;;;;5.05;1.05;;;33.80;26.20;;;;;;4983339;28;20105;-83
2022/06/27 08:43:33;;;;;;;2.75;0.70;;;34.20;25.50;;;;;;4984976;28;20037;-82
2022/06/27 08:45:59;;;;;;;4.38;1.08;;;33.80;26.10;;;;;;4984185;28;20030;-83
2022/06/27 08:48:28;;;;;;;5.50;0.93;;;34.20;24.50;;;;;;4985855;28;20398;-82
2022/06/27 08:50:56;;;;;;;;;;;34.40;24.70;;;;;;4991164;28;20053;-83
2022/06/27 08:53:25;;;;;;;2.53;0.70;;;32.80;27.00;;;;;;4982719;28;20372;-82
2022/06/27 08:55:51;;;;;;;9.10;1.83;;;33.80;26.10;;;;;;4988125;28;20416;-82
2022/06/27 08:58:17;;;;;;;10.55;1.70;;;34.30;24.70;;;;;;4981163;28;20035;-83
2022/06/27 09:00:46;;;;;;;3.60;0.60;;;33.90;25.60;;;;;;4989963;28;20027;-83
2022/06/27 09:03:19;;;;;;;5.93;1.35;;;33.90;25.30;;;;;;4995457;28;20030;-82
2022/06/27 09:05:57;;;;;;;2.67;0.70;;;34.10;25.50;;;;;;5002955;28;20080;-85
2022/06/27 09:08:28;;;;;;;2.57;0.60;;;34.10;25.80;;;;;;4994968;28;20061;-81
2022/06/27 09:10:56;;;;;;;3.33;0.70;;;33.70;25.60;;;;;;4989224;28;20046;-82
2022/06/27 09:13:23;;;;;;;2.17;0.70;;;34.50;25.80;;;;;;4985744;28;20022;-81
2022/06/27 09:16:00;;;;;;;3.42;0.70;;;33.90;25.30;;;;;;4991620;28;20078;-81
2022/06/27 09:18:30;;;;;;;3.15;0.88;;;33.10;26.00;;;;;;4982653;28;20482;-81
2022/06/27 09:21:05;;;;;;;2.47;0.40;;;33.60;26.40;;;;;;4982795;28;20030;-81
2022/06/27 09:23:41;;;;;;;2.55;0.90;;;33.50;26.00;;;;;;4986204;28;20124;-81
2022/06/27 09:26:17;;;;;;;2.85;0.55;;;33.70;26.30;;;;;;4982070;28;20085;-80
2022/06/27 09:28:48;;;;;;;3.20;0.50;;;34.10;24.90;;;;;;4985624;28;20026;-81
2022/06/27 09:31:26;;;;;;;2.70;0.77;;;32.80;26.20;;;;;;4979014;28;20050;-80
2022/06/27 09:34:14;;;;;;;2.90;0.45;;;34.10;25.00;;;;;;4983044;28;20018;-81
2022/06/27 09:36:42;;;;;;;1.80;0.40;;;34.70;25.90;;;;;;4981338;28;20042;-80
2022/06/27 09:39:19;;;;;;;4.53;0.67;;;33.70;25.80;;;;;;4977287;28;20027;-80
2022/06/27 09:41:59;;;;;;;3.05;0.90;;;33.50;24.90;;;;;;4995354;28;20026;-80
2022/06/27 09:44:38;;;;;;;3.78;0.82;;;34.40;24.80;;;;;;4987965;28;20110;-80
2022/06/27 09:47:15;;;;;;;;;;;34.70;23.80;;;;;;4998037;28;20113;-81
2022/06/27 09:49:43;;;;;;;1.90;0.50;;;33.60;25.20;;;;;;4981592;28;19914;-80
2022/06/27 09:52:11;;;;;;;5.25;0.93;;;33.30;26.30;;;;;;4980026;28;20051;-80
2022/06/27 09:54:40;;;;;;;5.32;0.70;;;34.30;25.80;;;;;;4985870;28;20034;-80
2022/06/27 09:57:08;;;;;;;5.28;0.85;;;34.30;26.00;;;;;;4978853;28;20050;-80
2022/06/27 09:59:35;;;;;;;1.60;0.50;;;32.90;26.20;;;;;;4984019;28;20026;-80
2022/06/27 10:02:01;;;;;;;3.80;0.52;;;31.70;28.40;;;;;;4978058;28;20015;-79
2022/06/27 10:04:29;;;;;;;2.25;0.73;;;30.60;29.20;;;;;;4989158;28;20052;-79
2022/06/27 10:06:58;;;;;;;2.03;0.35;;;31.10;28.70;;;;;;4993680;28;20061;-79
2022/06/27 10:09:25;;;;;;;2.55;0.50;;;32.70;27.40;;;;;;4983442;28;20029;-80
2022/06/27 10:12:31;;;;;;;2.97;0.80;;;31.90;28.40;;;;;;4986591;28;20544;-79
2022/06/27 10:15:12;;;;;;;3.75;0.90;;;31.90;27.90;;;;;;4986020;28;20070;-81
2022/06/27 10:17:38;;;;;;;3.40;0.70;;;32.50;27.80;;;;;;4992667;28;20018;-80
2022/06/27 10:20:12;;;;;;;3.08;0.55;;;32.80;26.40;;;;;;4982114;28;20482;-80
2022/06/27 10:22:41;;;;;;;2.47;0.52;;;33.30;26.10;;;;;;4983674;28;20051;-80
2022/06/27 10:25:26;;;;;;;2.58;0.52;;;33.70;26.30;;;;;;4980709;28;20571;-80
2022/06/27 10:28:12;;;;;;;3.65;0.73;;;33.20;25.20;;;;;;4988935;28;20395;-80
2022/06/27 10:30:50;;;;;;;2.25;0.30;;;33.80;25.40;;;;;;4989334;28;20030;-80
2022/06/27 10:33:19;;;;;;;3.38;0.50;;;34.00;25.30;;;;;;4995591;28;20050;-81
2022/06/27 10:35:57;;;;;;;;;;;33.90;24.80;;;;;;5006480;28;20022;-80
2022/06/27 10:38:39;;;;;;;2.40;0.40;;;33.90;25.50;;;;;;4987461;28;19910;-82
2022/06/27 10:41:06;;;;;;;3.70;0.75;;;33.80;24.90;;;;;;4981905;28;20026;-80
2022/06/27 10:43:42;;;;;;;2.65;0.50;;;32.60;26.50;;;;;;4978844;28;20146;-81
2022/06/27 10:46:11;;;;;;;3.00;0.55;;;32.00;28.50;;;;;;4984903;28;20030;-81
2022/06/27 10:48:45;;;;;;;3.63;0.50;;;31.40;29.40;;;;;;5007900;28;20088;-83
2022/06/27 10:51:28;;;;;;;2.42;0.60;;;30.30;29.20;;;;;;4987739;28;20406;-80
2022/06/27 10:54:05;;;;;;;2.40;0.50;;;29.70;31.90;;;;;;4974561;28;20106;-80
2022/06/27 10:56:36;;;;;;;2.72;0.50;;;29.20;32.20;;;;;;4995258;28;20026;-83
2022/06/27 10:59:27;;;;;;;3.70;0.60;;;28.60;32.30;;;;;;4991702;28;20026;-84
2022/06/27 11:01:58;;;;;;;2.20;0.63;;;28.00;32.70;;;;;;4975962;28;20508;-83
2022/06/27 11:04:24;;;;;;;3.67;0.40;;;27.30;33.50;;;;;;4981646;28;20034;-85
2022/06/27 11:06:56;;;;;;;1.85;0.28;;;27.30;34.70;;;;;;4978572;28;20054;-78
2022/06/27 11:09:34;;;;;;;2.63;0.60;;;27.50;34.00;;;;;;4976393;28;20026;-81
2022/06/27 11:12:00;;;;;;;2.22;0.47;;;27.80;34.30;;;;;;4988260;28;20032;-81
2022/06/27 11:14:26;;;;;;;3.08;0.60;;;28.20;34.60;;;;;;4995560;28;20509;-82
2022/06/27 11:16:52;;;;;;;3.55;0.95;;;28.10;35.30;;;;;;4989551;28;20382;-80
2022/06/27 11:22:22;;;;;;;2.88;0.82;;;27.70;35.20;;;;;;4978724;28;20041;-80
2022/06/27 11:24:51;;;;;;;3.33;0.50;;;27.50;35.00;;;;;;4975962;28;20057;-81
2022/06/27 11:27:16;;;;;;;3.17;0.82;;;27.20;35.50;;;;;;4976390;28;20034;-80
2022/06/27 11:32:33;;;;;;;1.40;0.28;;;27.10;36.80;;;;;;4994132;28;20165;-80
2022/06/27 11:34:59;;;;;;;3.75;0.70;;;27.00;37.10;;;;;;4995026;28;20375;-80
2022/06/27 11:37:29;;;;;;;3.72;0.60;;;26.70;36.50;;;;;;4989121;28;20084;-80
2022/06/27 11:40:06;;;;;;;2.35;0.52;;;26.70;37.80;;;;;;4997046;28;20041;-81
2022/06/27 11:42:34;;;;;;;3.03;0.60;;;26.70;37.80;;;;;;4999578;28;20023;-80
2022/06/27 11:45:10;;;;;;;2.25;0.50;;;26.50;37.90;;;;;;4989640;28;20111;-80
2022/06/27 11:47:39;;;;;;;1.73;0.50;;;26.30;37.90;;;;;;4983263;28;20027;-80
2022/06/27 11:50:13;;;;;;;3.60;0.63;;;26.10;38.10;;;;;;4982188;28;20045;-80
2022/06/27 11:52:48;;;;;;;2.05;0.57;;;26.00;39.40;;;;;;4985786;28;20038;-82
2022/06/27 11:55:19;;;;;;;2.05;0.70;;;25.60;39.50;;;;;;4988013;28;20026;-82
2022/06/27 11:57:48;;;;;;;3.40;0.57;;;25.60;38.90;;;;;;4987919;28;20051;-82
2022/06/27 12:00:25;;;;;;;1.33;0.55;;;25.50;37.60;;;;;;5003231;28;20030;-82
2022/06/27 12:02:52;;;;;;;0.50;0.20;;;25.70;38.90;;;;;;4984548;28;20035;-82
2022/06/27 12:05:22;;;;;;;0.98;0.40;;;25.80;37.70;;;;;;4998796;28;20057;-82
2022/06/27 12:08:06;;;;;;;2.40;0.30;;;25.50;37.30;;;;;;4993324;28;20042;-82
2022/06/27 12:10:35;;;;;;;1.98;0.43;;;25.80;37.10;;;;;;4979613;28;20026;-82
2022/06/27 12:13:01;;;;;;;3.05;0.52;;;25.90;36.90;;;;;;5009632;28;20089;-82
2022/06/27 12:15:27;;;;;;;2.15;0.30;;;25.90;37.80;;;;;;4979489;28;20039;-89
2022/06/27 12:17:57;;;;;;;2.92;0.55;;;25.80;36.80;;;;;;4988656;28;20446;-83
2022/06/27 12:20:27;;;;;;;;;;;25.80;37.40;;;;;;4979919;28;20454;-83
2022/06/27 12:22:53;;;;;;;1.70;0.43;;;26.00;37.60;;;;;;4978585;28;19920;-83
2022/06/27 12:25:19;;;;;;;1.70;0.50;;;26.30;38.80;;;;;;4980776;28;20022;-83
2022/06/27 12:27:45;;;;;;;1.25;0.40;;;26.30;37.20;;;;;;4993465;28;20038;-84
2022/06/27 12:30:12;;;;;;;2.40;0.40;;;26.70;36.70;;;;;;4997347;28;20022;-83
2022/06/27 12:32:38;;;;;;;1.48;0.35;;;26.50;36.10;;;;;;4991384;28;20489;-85
2022/06/27 12:35:04;;;;;;;3.53;0.50;;;26.70;36.80;;;;;;4992614;28;20026;-85
2022/06/27 12:37:30;;;;;;;1.52;0.35;;;26.40;36.10;;;;;;4980097;28;20053;-85
2022/06/27 12:39:56;;;;;;;2.03;0.50;;;26.60;35.50;;;;;;4988480;28;20022;-85
2022/06/27 12:42:22;;;;;;;3.58;0.47;;;26.10;36.20;;;;;;4995288;28;20027;-87
2022/06/27 12:44:51;;;;;;;1.90;0.40;;;26.10;36.20;;;;;;4992610;28;20023;-86
2022/06/27 12:47:16;;;;;;;1.60;0.20;;;26.20;37.00;;;;;;4991156;28;20033;-86
2022/06/27 12:49:42;;;;;;;1.60;0.40;;;26.30;39.50;;;;;;4991804;28;20066;-84
2022/06/27 12:52:08;;;;;;;2.63;0.38;;;26.80;39.60;;;;;;4977609;28;20046;-88
2022/06/27 12:54:36;;;;;;;3.83;0.30;;;26.90;38.80;;;;;;4991140;28;20061;-85
2022/06/27 12:57:04;;;;;;;1.92;0.45;;;27.10;38.40;;;;;;4981751;28;20465;-85
2022/06/27 13:03:04;;;;;;;2.72;0.38;;;26.90;38.50;;;;;;4991120;28;20406;-92
2022/06/27 13:09:49;;;;;;;1.00;0.40;;;26.80;38.30;;;;;;4978351;28;20085;-90
2022/06/27 13:19:10;;;;;;;2.05;0.40;;;26.30;38.30;;;;;;4984238;28;20085;-91